createdAt,value
2023-05-01T00:11:12.481Z,8.80
2023-05-01T00:16:14.917Z,8.20
2023-05-01T00:21:16.952Z,8.20
2023-05-01T00:26:18.788Z,8.20
2023-05-01T00:31:20.994Z,8.20
2023-05-01T00:36:22.827Z,8.70
2023-05-01T00:41:24.626Z,8.00
2023-05-01T00:46:26.902Z,7.90
2023-05-01T00:51:29.398Z,7.80
2023-05-01T00:56:31.437Z,7.80
2023-05-01T01:01:34.780Z,7.80
2023-05-01T01:07:05.688Z,7.70
2023-05-01T01:12:21.264Z,7.70
2023-05-01T01:17:42.874Z,7.60
2023-05-01T01:22:50.693Z,7.50
2023-05-01T01:28:18.469Z,7.40
2023-05-01T01:33:38.924Z,7.40
2023-05-01T01:38:44.303Z,7.30
2023-05-01T01:43:49.441Z,7.10
2023-05-01T01:48:52.911Z,7.10
2023-05-01T01:53:56.237Z,7.00
2023-05-01T01:58:59.046Z,7.00
2023-05-01T02:04:01.693Z,6.90
2023-05-01T02:09:06.479Z,6.80
2023-05-01T02:14:09.219Z,6.80
2023-05-01T02:19:11.636Z,6.80
2023-05-01T02:24:14.447Z,6.70
2023-05-01T02:29:16.261Z,6.60
2023-05-01T02:34:18.063Z,6.60
2023-05-01T02:39:19.966Z,6.50
2023-05-01T02:44:23.598Z,6.40
2023-05-01T02:49:25.991Z,6.30
2023-05-01T02:54:27.861Z,6.20
2023-05-01T02:59:29.971Z,6.10
2023-05-01T03:04:31.820Z,6.00
2023-05-01T03:09:33.750Z,6.00
2023-05-01T03:14:36.664Z,6.10
2023-05-01T03:19:38.549Z,6.10
2023-05-01T03:24:40.809Z,6.10
2023-05-01T03:29:43.017Z,6.00
2023-05-01T03:34:45.751Z,6.00
2023-05-01T03:39:47.605Z,6.00
2023-05-01T03:44:49.397Z,6.00
2023-05-01T03:49:51.205Z,6.00
2023-05-01T03:54:53.351Z,6.10
2023-05-01T03:59:55.459Z,6.00
2023-05-01T04:04:57.654Z,6.10
2023-05-01T04:09:59.691Z,6.20
2023-05-01T04:15:01.683Z,6.30
2023-05-01T04:20:06.167Z,6.40
2023-05-01T04:25:08.643Z,6.40
2023-05-01T04:30:11.559Z,6.50
2023-05-01T04:35:13.434Z,6.50
2023-05-01T04:40:15.350Z,6.60
2023-05-01T04:45:17.217Z,6.70
2023-05-01T04:50:19.033Z,6.90
2023-05-01T04:55:21.165Z,7.00
2023-05-01T05:00:26.223Z,7.20
2023-05-01T05:05:28.085Z,7.40
2023-05-01T05:10:29.892Z,7.80
2023-05-01T05:15:31.780Z,8.30
2023-05-01T05:20:38.353Z,8.80
2023-05-01T05:25:40.753Z,9.30
2023-05-01T05:30:42.752Z,9.90
2023-05-01T05:35:44.746Z,10.40
2023-05-01T05:40:46.553Z,10.90
2023-05-01T05:45:48.418Z,11.30
2023-05-01T05:50:52.496Z,11.80
2023-05-01T05:55:54.351Z,12.20
2023-05-01T06:00:56.259Z,12.40
2023-05-01T06:05:58.318Z,12.70
2023-05-01T06:11:00.269Z,13.10
2023-05-01T06:16:02.180Z,13.50
2023-05-01T06:21:04.196Z,13.90
2023-05-01T06:26:06.334Z,14.20
2023-05-01T06:31:08.265Z,14.30
2023-05-01T06:36:10.130Z,14.60
2023-05-01T06:41:11.913Z,14.80
2023-05-01T06:46:13.978Z,15.00
2023-05-01T06:51:16.118Z,15.20
2023-05-01T06:56:18.002Z,15.30
2023-05-01T07:01:22.798Z,15.40
2023-05-01T07:06:24.724Z,15.50
2023-05-01T07:11:27.136Z,15.10
2023-05-01T07:16:29.014Z,15.30
2023-05-01T07:21:32.181Z,15.80
2023-05-01T07:26:34.037Z,16.10
2023-05-01T07:31:36.325Z,16.20
2023-05-01T07:36:41.562Z,16.20
2023-05-01T07:41:43.675Z,16.00
2023-05-01T07:46:59.726Z,15.50
2023-05-01T07:52:04.208Z,15.00
2023-05-01T07:57:06.550Z,14.90
2023-05-01T08:02:08.431Z,14.90
2023-05-01T08:07:10.335Z,15.30
2023-05-01T08:12:12.251Z,15.70
2023-05-01T08:17:14.764Z,16.00
2023-05-01T08:22:16.564Z,16.50
2023-05-01T08:27:18.593Z,16.50
2023-05-01T08:32:21.500Z,16.70
2023-05-01T08:37:23.743Z,16.90
2023-05-01T08:42:25.720Z,17.10
2023-05-01T08:47:29.206Z,17.20
2023-05-01T08:52:31.960Z,17.10
2023-05-01T08:57:34.274Z,17.30
2023-05-01T09:02:37.319Z,17.60
2023-05-01T09:07:39.147Z,17.80
2023-05-01T09:12:44.837Z,18.10
2023-05-01T09:17:47.298Z,17.80
2023-05-01T09:22:49.301Z,17.80
2023-05-01T09:27:52.006Z,17.50
2023-05-01T09:33:05.007Z,17.30
2023-05-01T09:38:07.015Z,17.60
2023-05-01T09:43:11.224Z,18.00
2023-05-01T09:48:14.422Z,18.40
2023-05-01T09:53:16.356Z,18.60
2023-05-01T09:58:28.389Z,19.00
2023-05-01T10:03:30.618Z,19.10
2023-05-01T10:08:45.465Z,18.90
2023-05-01T10:14:05.257Z,18.80
2023-05-01T10:19:07.723Z,18.90
2023-05-01T10:24:11.113Z,19.00
2023-05-01T10:29:13.320Z,19.40
2023-05-01T10:34:17.012Z,19.60
2023-05-01T10:39:35.686Z,19.40
2023-05-01T10:44:37.794Z,19.60
2023-05-01T10:50:07.091Z,19.80
2023-05-01T10:55:34.048Z,19.80
2023-05-01T11:00:35.942Z,19.80
2023-05-01T11:06:01.114Z,20.00
2023-05-01T11:11:26.334Z,20.10
2023-05-01T11:16:34.001Z,19.90
2023-05-01T11:21:37.312Z,20.20
2023-05-01T11:26:45.101Z,20.20
2023-05-01T11:31:48.425Z,19.90
2023-05-01T11:36:52.486Z,19.90
2023-05-01T11:42:07.152Z,19.70
2023-05-01T11:47:09.196Z,19.90
2023-05-01T11:52:11.188Z,20.00
2023-05-01T11:57:13.822Z,20.20
2023-05-01T12:02:22.227Z,20.30
2023-05-01T12:07:24.584Z,20.40
2023-05-01T12:12:26.512Z,20.40
2023-05-01T12:17:30.262Z,20.30
2023-05-01T12:22:32.190Z,20.30
2023-05-01T12:27:43.352Z,20.10
2023-05-01T12:32:45.909Z,20.10
2023-05-01T12:37:47.817Z,20.20
2023-05-01T12:42:58.956Z,20.30
2023-05-01T12:48:00.849Z,20.30
2023-05-01T12:53:03.111Z,20.40
2023-05-01T12:58:07.591Z,20.40
2023-05-01T13:03:09.697Z,20.00
2023-05-01T13:08:11.691Z,20.00
2023-05-01T13:13:13.551Z,19.90
2023-05-01T13:18:15.580Z,19.90
2023-05-01T13:23:17.472Z,20.00
2023-05-01T13:28:20.628Z,20.20
2023-05-01T13:33:22.845Z,19.90
2023-05-01T13:38:27.777Z,19.80
2023-05-01T13:43:29.920Z,19.90
2023-05-01T13:48:32.187Z,20.20
2023-05-01T13:53:34.677Z,20.20
2023-05-01T13:58:36.617Z,20.00
2023-05-01T14:03:41.112Z,20.00
2023-05-01T14:08:46.484Z,19.60
2023-05-01T14:13:51.500Z,19.30
2023-05-01T14:18:56.835Z,19.10
2023-05-01T14:23:59.129Z,19.20
2023-05-01T14:29:01.256Z,19.20
2023-05-01T14:34:06.318Z,19.20
2023-05-01T14:39:08.407Z,19.40
2023-05-01T14:44:14.332Z,19.50
2023-05-01T14:49:19.198Z,19.60
2023-05-01T14:54:21.445Z,19.70
2023-05-01T14:59:24.579Z,19.60
2023-05-01T15:04:31.302Z,19.60
2023-05-01T15:09:42.023Z,19.60
2023-05-01T15:14:44.253Z,19.60
2023-05-01T15:19:46.101Z,19.50
2023-05-01T15:24:48.182Z,19.40
2023-05-01T15:29:50.187Z,19.40
2023-05-01T15:34:56.708Z,19.20
2023-05-01T15:39:59.666Z,19.10
2023-05-01T15:45:05.839Z,19.00
2023-05-01T15:50:11.782Z,18.90
2023-05-01T15:55:13.654Z,18.90
2023-05-01T16:00:16.846Z,18.90
2023-05-01T16:05:21.461Z,18.90
2023-05-01T16:10:24.998Z,18.90
2023-05-01T16:15:26.855Z,18.80
2023-05-01T16:20:29.753Z,18.80
2023-05-01T16:25:31.585Z,18.80
2023-05-01T16:30:33.441Z,18.70
2023-05-01T16:35:36.802Z,18.70
2023-05-01T16:40:38.827Z,18.60
2023-05-01T16:45:40.805Z,18.50
2023-05-01T16:50:42.684Z,18.40
2023-05-01T16:55:44.554Z,18.30
2023-05-01T17:00:46.559Z,18.20
2023-05-01T17:05:48.429Z,18.10
2023-05-01T17:10:50.637Z,18.00
2023-05-01T17:15:52.753Z,17.90
2023-05-01T17:20:54.682Z,17.80
2023-05-01T17:25:56.653Z,17.70
2023-05-01T17:30:58.799Z,17.60
2023-05-01T17:36:01.183Z,17.50
2023-05-01T17:41:03.127Z,17.40
2023-05-01T17:46:05.946Z,17.30
2023-05-01T17:51:08.134Z,17.20
2023-05-01T17:56:10.054Z,17.00
2023-05-01T18:01:11.939Z,16.90
2023-05-01T18:06:14.077Z,16.80
2023-05-01T18:11:16.681Z,16.70
2023-05-01T18:16:18.722Z,16.60
2023-05-01T18:21:27.610Z,16.60
2023-05-01T18:26:35.886Z,16.40
2023-05-01T18:31:38.344Z,16.40
2023-05-01T18:37:03.566Z,16.30
2023-05-01T18:42:13.084Z,16.20
2023-05-01T18:47:14.943Z,16.20
2023-05-01T18:52:16.780Z,16.20
2023-05-01T18:57:55.285Z,16.10
2023-05-01T19:03:25.229Z,16.10
2023-05-01T19:08:27.383Z,16.00
2023-05-01T19:13:32.626Z,15.90
2023-05-01T19:18:36.627Z,15.90
2023-05-01T19:23:39.927Z,15.80
2023-05-01T19:28:42.322Z,15.70
2023-05-01T19:33:44.177Z,15.60
2023-05-01T19:38:46.529Z,15.50
2023-05-01T19:43:48.364Z,15.40
2023-05-01T19:48:51.464Z,15.30
2023-05-01T19:53:53.294Z,15.20
2023-05-01T19:58:55.166Z,15.10
2023-05-01T20:03:57.210Z,15.00
2023-05-01T20:08:59.136Z,15.00
2023-05-01T20:14:03.423Z,14.90
2023-05-01T20:19:06.404Z,14.80
2023-05-01T20:24:08.359Z,14.80
2023-05-01T20:29:10.360Z,14.70
2023-05-01T20:34:12.219Z,14.50
2023-05-01T20:39:14.372Z,14.40
2023-05-01T20:44:16.383Z,14.30
2023-05-01T20:49:20.409Z,14.20
2023-05-01T20:54:22.709Z,14.20
2023-05-01T20:59:24.595Z,14.00
2023-05-01T21:04:26.532Z,13.90
2023-05-01T21:09:28.438Z,13.80
2023-05-01T21:14:30.342Z,13.80
2023-05-01T21:19:43.367Z,13.70
2023-05-01T21:24:45.411Z,13.60
2023-05-01T21:29:58.039Z,13.60
2023-05-01T21:35:03.786Z,13.60
2023-05-01T21:40:06.503Z,13.50
2023-05-01T21:45:13.077Z,13.50
2023-05-01T21:50:16.350Z,13.50
2023-05-01T21:55:20.558Z,13.40
2023-05-01T22:00:22.418Z,13.30
2023-05-01T22:05:24.378Z,13.20
2023-05-01T22:10:26.419Z,13.10
2023-05-01T22:15:28.254Z,13.10
2023-05-01T22:20:30.226Z,13.00
2023-05-01T22:25:32.056Z,13.00
2023-05-01T22:30:34.896Z,12.90
2023-05-01T22:35:36.749Z,12.80
2023-05-01T22:40:38.796Z,12.70
2023-05-01T22:45:40.703Z,12.60
2023-05-01T22:50:45.616Z,12.60
2023-05-01T22:55:47.662Z,12.50
2023-05-01T23:00:49.496Z,12.50
2023-05-01T23:05:51.343Z,12.50
2023-05-01T23:10:53.466Z,12.40
2023-05-01T23:15:55.323Z,12.30
2023-05-01T23:20:57.430Z,12.20
2023-05-01T23:25:59.322Z,12.20
2023-05-01T23:31:03.191Z,12.10
2023-05-01T23:36:10.327Z,12.10
2023-05-01T23:41:13.944Z,12.00
2023-05-01T23:46:16.198Z,12.00
2023-05-01T23:51:18.073Z,11.90
2023-05-01T23:56:20.145Z,11.80
